This is the latest recevied weather packets stored in our database for station/object AG1T-20. If no packets are shown the sender has not sent any weather packets the latest 10 day(s).
| Time | Temp. | Humidity | Pressure | Rain* | Wind** | Luminosity | Snow |
|---|---|---|---|---|---|---|---|
| 1787763005 | 21.11° C | 55% | 1025 hPa | 0 mm | - | 528 W/m² | - |
| 1787762404 | 21.11° C | 53% | 1025 hPa | 0 mm | - | 386 W/m² | - |
| 1787761805 | 20.56° C | 57% | 1025 hPa | 0 mm | - | 542 W/m² | - |
| 1787761205 | 20.56° C | 54% | 1025 hPa | 0 mm | - | 184 W/m² | - |
| 1787760604 | 20° C | 55% | 1025 hPa | 0 mm | - | 412 W/m² | - |
| 1787760004 | 19.44° C | 56% | 1025 hPa | 0 mm | - | 193 W/m² | - |
| 1787759405 | 19.44° C | 57% | 1025.3 hPa | 0 mm | - | 177 W/m² | - |
| 1787758804 | 19.44° C | 56% | 1025.3 hPa | 0 mm | - | 209 W/m² | - |
| 1787758204 | 19.44° C | 55% | 1025.3 hPa | 0 mm | - | 239 W/m² | - |
| 1787757605 | 19.44° C | 52% | 1025.3 hPa | 0 mm | - | 303 W/m² | - |
| 1787757004 | 18.89° C | 52% | 1025.3 hPa | 0 mm | - | 183 W/m² | - |
| 1787756404 | 18.89° C | 51% | 1025.3 hPa | 0 mm | - | 175 W/m² | - |
| 1787755804 | 18.89° C | 55% | 1025 hPa | 0 mm | - | 567 W/m² | - |
| 1787755205 | 17.78° C | 64% | 1025 hPa | 0 mm | - | 523 W/m² | - |
| 1787754605 | 15.56° C | 67% | 1025 hPa | 0 mm | - | 345 W/m² | - |
| 1787754007 | 15° C | 70% | 1025 hPa | 0 mm | - | 86 W/m² | - |
| 1787753405 | 15.56° C | 68% | 1025 hPa | 0 mm | - | 74 W/m² | - |
| 1787752805 | 16.11° C | 66% | 1025 hPa | 0 mm | - | 85 W/m² | - |
| 1787752205 | 15.56° C | 66% | 1024.9 hPa | 0 mm | - | 309 W/m² | - |
| 1787751605 | 15° C | 68% | 1024.9 hPa | 0 mm | - | 256 W/m² | - |
| 1787751005 | 13.89° C | 72% | 1024.9 hPa | 0 mm | - | 50 W/m² | - |
| 1787750405 | 13.33° C | 74% | 1024.9 hPa | 0 mm | - | 42 W/m² | - |
| 1787749805 | 13.89° C | 72% | 1024.9 hPa | 0 mm | - | 32 W/m² | - |
| 1787749204 | 13.33° C | 74% | 1024.9 hPa | 0 mm | - | 23 W/m² | - |
| 1787748605 | 12.78° C | 77% | 1024.4 hPa | 0 mm | - | 10 W/m² | - |
* Rain latest hour (hover to see other rain measurements)
** Current wind speed in m/s (hover to see current wind gust speed)